Strona główna
METAR-TAF:

METAR-TAF

Lotnisko :

Newport State Airport

Newport, Rhode Island, Stany Zjednoczone

Szerokość geograficzna: 41-31-48N, Długość geograficzna: 071-17-01W, wysokość: 52 m

Aktualna obserwacja pogody

Raport powstał 39 minut temu, godzina 13:53 UTC
Wiatr 9 kt od południowy wschód
Temperatura 6°C
Wilgotność 70%
Ciśnienie 1023 hPa
Widzialność: 16.1 km
Zachmurzenie całkowite na wysokości 5000 ft

METAR: KUUU 211353Z AUTO 13009KT 10SM OVC050 06/01 A3020 RMK AO2 SLP228 T00560011

czas: 10:32 (14:32 UTC)


TAF: brakujący

Obserwacja i prognoza pogody dla ponad 4000 lotnisk (raport METAR i TAF).

Dostępne stacje oznaczono żółtymi i czerwonymi punktami na mapie.

Najedź kursorem aby zobaczyć nazwę stacji.

Kliknij aby zobaczyć obserwacje i prognozy pogody.

Aby zmienić mapę: kliknij na zielony przycisk z czarnym krzyżykiem, aby powiększyć; na zielony przycisk z myślnikiem, aby pomniejszyć; na zielone strzałki, aby przejść do map sąsiednich.


METAR-TAF: